Time;durP1;ratioP1;P1;durP2;ratioP2;P2;SDS_P1;SDS_P2;PMS_P1;PMS_P2;Temp;Humidity;BMP_temperature;BMP_pressure;BME280_temperature;BME280_humidity;BME280_pressure;Samples;Min_cycle;Max_cycle;Signal;HPM_P1;HPM_P2
2023/06/15 00:01:41;;;;;;;10.67;5.73;;;15.40;99.90;;;;;;4993258;28;20180;-32
2023/06/15 00:04:06;;;;;;;5.50;4.93;;;15.40;99.90;;;;;;5003437;28;20187;-33
2023/06/15 00:06:33;;;;;;;6.53;5.20;;;15.40;99.90;;;;;;5009131;28;20204;-32
2023/06/15 00:08:59;;;;;;;6.63;5.03;;;15.50;99.90;;;;;;5009625;28;20188;-33
2023/06/15 00:11:25;;;;;;;5.47;4.97;;;15.50;99.90;;;;;;4996089;28;20214;-34
2023/06/15 00:13:51;;;;;;;5.40;4.90;;;15.50;99.90;;;;;;4996159;28;20198;-32
2023/06/15 00:16:18;;;;;;;7.33;5.10;;;15.50;99.90;;;;;;4995587;28;20207;-34
2023/06/15 00:18:47;;;;;;;7.27;5.03;;;15.40;99.90;;;;;;4996560;28;20176;-35
2023/06/15 00:21:16;;;;;;;5.07;4.63;;;15.40;99.90;;;;;;4994101;28;20191;-33
2023/06/15 00:23:45;;;;;;;6.00;4.60;;;15.20;99.90;;;;;;4998621;28;20217;-32
2023/06/15 00:26:11;;;;;;;5.80;5.13;;;15.10;99.90;;;;;;5008696;28;20242;-34
2023/06/15 00:28:38;;;;;;;6.47;4.90;;;14.90;99.90;;;;;;5012204;28;20211;-32
2023/06/15 00:31:04;;;;;;;6.63;5.20;;;14.90;99.90;;;;;;4995409;28;20250;-33
2023/06/15 00:33:30;;;;;;;5.80;5.30;;;14.80;99.90;;;;;;4992075;28;20195;-34
2023/06/15 00:35:57;;;;;;;5.80;5.20;;;14.80;99.90;;;;;;4992529;28;20198;-33
2023/06/15 00:38:23;;;;;;;5.27;4.77;;;14.80;99.90;;;;;;5011913;28;20183;-32
2023/06/15 00:40:50;;;;;;;5.63;5.03;;;14.80;99.90;;;;;;4995404;28;20187;-33
2023/06/15 00:43:21;;;;;;;6.00;5.13;;;14.70;99.90;;;;;;4995391;28;20203;-34
2023/06/15 00:45:47;;;;;;;9.13;5.23;;;14.70;99.90;;;;;;4995000;28;20202;-33
2023/06/15 00:48:14;;;;;;;5.90;4.97;;;14.70;99.90;;;;;;5001667;28;20264;-36
2023/06/15 00:50:41;;;;;;;5.73;5.13;;;14.70;99.90;;;;;;5008644;28;20207;-34
2023/06/15 00:53:10;;;;;;;5.03;4.60;;;14.70;99.90;;;;;;4987582;28;20183;-33
2023/06/15 00:55:37;;;;;;;5.97;5.30;;;14.70;99.90;;;;;;4995516;28;20175;-35
2023/06/15 00:58:05;;;;;;;5.83;5.20;;;14.60;99.90;;;;;;4995710;28;20209;-32
2023/06/15 01:00:37;;;;;;;6.17;5.13;;;14.50;99.90;;;;;;4990937;28;20187;-32
2023/06/15 01:03:06;;;;;;;5.57;4.93;;;14.50;99.90;;;;;;5015254;28;20213;-33
2023/06/15 01:05:35;;;;;;;5.83;5.23;;;14.50;99.90;;;;;;5000958;28;20187;-35
2023/06/15 01:08:07;;;;;;;5.93;4.93;;;14.50;99.90;;;;;;4993873;28;20215;-32
2023/06/15 01:10:35;;;;;;;5.73;5.13;;;14.50;99.90;;;;;;5010531;28;20210;-33
2023/06/15 01:13:03;;;;;;;7.33;5.30;;;14.50;99.90;;;;;;4997096;28;20199;-34
2023/06/15 01:15:31;;;;;;;6.27;5.17;;;14.50;99.90;;;;;;4997254;28;20183;-32
2023/06/15 01:18:02;;;;;;;7.43;5.30;;;14.50;99.90;;;;;;4997118;28;20210;-32
2023/06/15 01:20:42;;;;;;;8.50;5.03;;;14.50;99.90;;;;;;4997328;28;20190;-34
2023/06/15 01:23:32;;;;;;;6.47;5.77;;;14.50;99.90;;;;;;4997333;28;20654;-32
2023/06/15 01:26:06;;;;;;;7.10;5.53;;;14.50;99.90;;;;;;4996097;28;20333;-34
2023/06/15 01:28:34;;;;;;;8.10;5.40;;;14.50;99.90;;;;;;4980980;28;20191;-33
2023/06/15 01:31:01;;;;;;;7.00;5.53;;;14.50;99.90;;;;;;5010791;28;20206;-38
2023/06/15 01:33:30;;;;;;;6.37;5.77;;;14.40;99.90;;;;;;4991700;28;20182;-32
2023/06/15 01:35:57;;;;;;;6.83;5.43;;;14.40;99.90;;;;;;4991851;28;20184;-32
2023/06/15 01:38:25;;;;;;;6.00;5.40;;;14.30;99.90;;;;;;5010547;28;20324;-34
2023/06/15 01:40:53;;;;;;;5.97;5.47;;;14.30;99.90;;;;;;5011113;28;20269;-33
2023/06/15 01:43:24;;;;;;;6.40;5.60;;;14.20;99.90;;;;;;4999612;28;20258;-33
2023/06/15 01:45:54;;;;;;;6.30;5.60;;;14.10;99.90;;;;;;5014351;28;20190;-34
2023/06/15 01:48:20;;;;;;;6.53;5.00;;;14.10;99.90;;;;;;4991837;28;20199;-33
2023/06/15 01:50:50;;;;;;;6.07;5.03;;;14.00;99.90;;;;;;5005441;28;20207;-34
2023/06/15 01:53:16;;;;;;;6.83;5.30;;;13.90;99.90;;;;;;5008437;28;20188;-32
2023/06/15 01:55:42;;;;;;;5.20;4.70;;;13.90;99.90;;;;;;4983309;28;20178;-35
2023/06/15 01:58:08;;;;;;;6.20;5.60;;;13.80;99.90;;;;;;5004825;28;20214;-37
2023/06/15 02:00:34;;;;;;;8.13;5.17;;;13.80;99.90;;;;;;4984934;28;20267;-36
2023/06/15 02:03:01;;;;;;;6.00;5.40;;;13.80;99.90;;;;;;4982947;28;20215;-36
2023/06/15 02:05:28;;;;;;;7.53;5.47;;;13.70;99.90;;;;;;4993683;28;20278;-36
2023/06/15 02:07:54;;;;;;;6.27;5.67;;;13.70;99.90;;;;;;4993078;28;20217;-38
2023/06/15 02:10:22;;;;;;;8.10;5.57;;;13.60;99.90;;;;;;4975588;28;20220;-34
2023/06/15 02:12:49;;;;;;;6.60;5.87;;;13.60;99.90;;;;;;5005031;28;20648;-36
2023/06/15 02:15:20;;;;;;;5.87;5.20;;;13.50;99.90;;;;;;4978332;28;20215;-35
2023/06/15 02:17:46;;;;;;;6.60;5.27;;;13.50;99.90;;;;;;4993225;28;20257;-37
2023/06/15 02:20:12;;;;;;;7.47;5.57;;;13.40;99.90;;;;;;4977337;28;20186;-38
2023/06/15 02:22:38;;;;;;;7.87;5.67;;;13.50;99.90;;;;;;5004415;28;20213;-37
2023/06/15 02:25:04;;;;;;;6.30;5.70;;;13.40;99.90;;;;;;5000093;28;20679;-36
2023/06/15 02:27:30;;;;;;;5.37;4.80;;;13.40;99.90;;;;;;4997193;28;20204;-35
2023/06/15 02:29:56;;;;;;;7.43;5.67;;;13.30;99.90;;;;;;5006723;28;20214;-34
2023/06/15 02:32:42;;;;;;;6.30;5.40;;;13.30;99.90;;;;;;5009828;28;20213;-34
2023/06/15 02:35:12;;;;;;;6.50;5.37;;;13.30;99.90;;;;;;5009836;28;20200;-37
2023/06/15 02:37:41;;;;;;;5.97;5.17;;;13.20;99.90;;;;;;4979842;28;20746;-37
2023/06/15 02:40:11;;;;;;;7.63;5.90;;;13.10;99.90;;;;;;5007619;28;20179;-36
2023/06/15 02:42:38;;;;;;;7.17;5.70;;;13.10;99.90;;;;;;4988579;28;20194;-35
2023/06/15 02:45:06;;;;;;;9.57;6.27;;;13.00;99.90;;;;;;4993357;28;20178;-37
2023/06/15 02:47:34;;;;;;;8.13;6.77;;;13.00;99.90;;;;;;4980541;28;20205;-37
2023/06/15 02:50:00;;;;;;;6.40;5.67;;;13.00;99.90;;;;;;5005748;28;20207;-38
2023/06/15 02:52:31;;;;;;;7.50;6.37;;;13.10;99.90;;;;;;4997714;28;20182;-37
2023/06/15 02:54:59;;;;;;;6.83;6.07;;;13.10;99.90;;;;;;5009946;28;20190;-36
2023/06/15 02:57:25;;;;;;;7.37;6.20;;;13.10;99.90;;;;;;4993374;28;20709;-35
2023/06/15 03:00:11;;;;;;;7.07;5.90;;;13.20;99.90;;;;;;4994318;28;20216;-38
2023/06/15 03:02:44;;;;;;;6.63;6.03;;;13.20;99.90;;;;;;4993983;28;20208;-34
2023/06/15 03:05:11;;;;;;;6.83;6.03;;;13.20;99.90;;;;;;4994023;28;20231;-35
2023/06/15 03:07:46;;;;;;;6.70;5.97;;;13.10;99.90;;;;;;4993348;28;20303;-35
2023/06/15 03:10:25;;;;;;;6.67;5.97;;;13.10;99.90;;;;;;4993856;28;20258;-36
2023/06/15 03:12:52;;;;;;;8.57;6.40;;;13.10;99.90;;;;;;4993486;28;20176;-35
2023/06/15 03:15:18;;;;;;;6.57;5.87;;;13.10;99.90;;;;;;5010175;28;20188;-34
2023/06/15 03:17:45;;;;;;;7.03;5.80;;;13.20;99.90;;;;;;4993315;28;20220;-39
2023/06/15 03:20:16;;;;;;;7.47;6.53;;;13.20;99.90;;;;;;5011559;28;20183;-34
2023/06/15 03:22:42;;;;;;;8.00;6.73;;;13.20;99.90;;;;;;4999395;28;20179;-38
2023/06/15 03:25:11;;;;;;;7.27;6.57;;;13.30;99.90;;;;;;5018801;28;20208;-33
2023/06/15 03:27:40;;;;;;;9.90;6.03;;;13.30;99.90;;;;;;4983358;28;20245;-36
2023/06/15 03:30:11;;;;;;;9.03;6.53;;;13.40;99.90;;;;;;5003662;28;20286;-39
2023/06/15 03:32:39;;;;;;;6.70;6.10;;;13.40;99.90;;;;;;4996418;28;20177;-37
2023/06/15 03:35:06;;;;;;;7.10;5.87;;;13.30;99.90;;;;;;4985231;28;20175;-38
2023/06/15 03:37:33;;;;;;;6.37;5.73;;;13.30;99.90;;;;;;4991689;28;20196;-36
2023/06/15 03:40:05;;;;;;;6.00;5.47;;;13.30;99.90;;;;;;4991179;28;20188;-40
2023/06/15 03:42:33;;;;;;;7.93;6.10;;;13.30;99.90;;;;;;5007186;28;20618;-35
2023/06/15 03:45:01;;;;;;;7.33;5.97;;;13.30;99.90;;;;;;5009243;28;20179;-34
2023/06/15 03:47:32;;;;;;;6.73;6.03;;;13.30;99.90;;;;;;5011923;28;20225;-38
2023/06/15 03:50:06;;;;;;;6.60;6.00;;;13.30;99.90;;;;;;5004425;28;20218;-42
2023/06/15 03:52:35;;;;;;;6.27;5.67;;;13.30;99.90;;;;;;4977376;28;20191;-42
2023/06/15 03:55:03;;;;;;;5.93;5.37;;;13.30;99.90;;;;;;5012165;28;20199;-39
2023/06/15 03:57:29;;;;;;;6.90;6.20;;;13.30;99.90;;;;;;4992386;28;20207;-42
2023/06/15 03:59:55;;;;;;;8.07;6.27;;;13.30;99.90;;;;;;4988012;28;20189;-42
2023/06/15 04:02:21;;;;;;;6.73;6.13;;;13.30;99.90;;;;;;5001083;28;20187;-42
2023/06/15 04:04:47;;;;;;;6.73;6.13;;;13.30;99.90;;;;;;4992834;28;20192;-42
2023/06/15 04:07:13;;;;;;;6.90;6.10;;;13.30;99.90;;;;;;4991687;28;20215;-42
2023/06/15 04:09:39;;;;;;;6.50;5.77;;;13.40;99.90;;;;;;4992292;28;20224;-41
2023/06/15 04:12:05;;;;;;;7.43;6.03;;;13.40;99.90;;;;;;4995218;28;20237;-42
2023/06/15 04:14:33;;;;;;;6.33;5.73;;;13.50;99.90;;;;;;4994794;28;20273;-41
2023/06/15 04:17:00;;;;;;;6.60;5.83;;;13.50;99.90;;;;;;5007248;28;20302;-42
2023/06/15 04:19:27;;;;;;;8.80;6.57;;;13.70;99.90;;;;;;5011808;28;20190;-42
2023/06/15 04:21:55;;;;;;;7.50;6.10;;;13.60;99.90;;;;;;4995411;28;20190;-41
2023/06/15 04:24:21;;;;;;;7.80;6.30;;;13.70;99.90;;;;;;4992311;28;20290;-40
2023/06/15 04:26:47;;;;;;;7.50;6.37;;;13.70;99.90;;;;;;5002274;28;20203;-42
2023/06/15 04:29:18;;;;;;;7.00;6.30;;;13.80;99.90;;;;;;4978615;28;20176;-42
2023/06/15 04:31:46;;;;;;;8.07;6.37;;;13.80;99.90;;;;;;4981656;28;20284;-42
2023/06/15 04:34:15;;;;;;;8.10;6.60;;;13.90;99.90;;;;;;5009721;28;20210;-40
2023/06/15 04:36:41;;;;;;;6.70;5.93;;;13.80;99.90;;;;;;4991597;28;20303;-42
2023/06/15 04:39:07;;;;;;;7.87;5.40;;;13.80;99.90;;;;;;5009671;28;20325;-42
2023/06/15 04:41:35;;;;;;;8.57;6.33;;;13.80;99.90;;;;;;4994375;28;20200;-41
2023/06/15 04:44:05;;;;;;;7.67;6.30;;;13.80;99.90;;;;;;4980064;28;20224;-42
2023/06/15 04:46:32;;;;;;;7.57;6.30;;;13.80;99.90;;;;;;4994572;28;20213;-42
2023/06/15 04:49:00;;;;;;;6.30;5.80;;;13.80;99.90;;;;;;4994638;28;20238;-42
2023/06/15 04:51:26;;;;;;;7.30;6.10;;;13.90;99.90;;;;;;4991993;28;20208;-43
2023/06/15 04:53:52;;;;;;;6.83;5.80;;;14.00;99.90;;;;;;5003596;28;20222;-42
2023/06/15 04:56:18;;;;;;;6.90;6.20;;;14.10;99.90;;;;;;5008399;28;20215;-42
2023/06/15 04:58:45;;;;;;;6.90;6.20;;;14.10;99.90;;;;;;4995112;28;20175;-41
2023/06/15 05:01:11;;;;;;;7.60;6.57;;;14.10;99.90;;;;;;4993360;28;20193;-42
2023/06/15 05:03:37;;;;;;;8.40;6.73;;;14.20;99.90;;;;;;5011566;28;20183;-42
2023/06/15 05:06:03;;;;;;;8.17;7.10;;;14.30;99.90;;;;;;4978476;28;20219;-40
2023/06/15 05:08:40;;;;;;;7.70;6.37;;;14.40;99.90;;;;;;5007826;28;20194;-42
2023/06/15 05:11:06;;;;;;;7.63;6.93;;;14.50;99.90;;;;;;4995332;28;20217;-42
2023/06/15 05:13:33;;;;;;;7.50;6.80;;;14.50;99.90;;;;;;5008090;28;20178;-39
2023/06/15 05:16:01;;;;;;;10.13;6.40;;;14.60;99.90;;;;;;4992964;28;20233;-42
2023/06/15 05:18:29;;;;;;;8.43;6.17;;;14.70;99.90;;;;;;4978508;28;20183;-42
2023/06/15 05:20:56;;;;;;;8.73;7.10;;;14.80;99.90;;;;;;4989898;28;20189;-42
2023/06/15 05:23:22;;;;;;;7.77;7.07;;;14.70;99.90;;;;;;4993090;28;20211;-42
2023/06/15 05:25:48;;;;;;;7.53;6.77;;;14.70;99.90;;;;;;5004533;28;20183;-43
2023/06/15 05:28:16;;;;;;;7.63;6.60;;;14.70;99.90;;;;;;4977219;28;20186;-42
2023/06/15 05:30:42;;;;;;;9.40;7.00;;;14.80;99.90;;;;;;4994601;28;20223;-40
2023/06/15 05:33:09;;;;;;;7.23;6.53;;;14.90;99.90;;;;;;4978683;28;20187;-42
2023/06/15 05:35:36;;;;;;;7.43;6.63;;;15.00;99.90;;;;;;4986516;28;20218;-39
2023/06/15 05:38:02;;;;;;;7.00;6.30;;;15.10;99.90;;;;;;4993493;28;20222;-40
2023/06/15 05:40:29;;;;;;;7.80;6.87;;;15.20;99.90;;;;;;4983417;28;20250;-42
2023/06/15 05:42:55;;;;;;;7.27;6.57;;;15.20;99.90;;;;;;5007517;28;20184;-42
2023/06/15 05:45:21;;;;;;;8.90;7.00;;;15.40;99.90;;;;;;5009860;28;20195;-42
2023/06/15 05:47:47;;;;;;;9.57;7.87;;;15.40;99.90;;;;;;4983462;28;20202;-41
2023/06/15 05:50:13;;;;;;;7.83;7.03;;;15.60;99.90;;;;;;5008485;28;20274;-42
2023/06/15 05:52:39;;;;;;;7.87;7.17;;;15.70;99.90;;;;;;5006461;28;20203;-42
2023/06/15 05:55:06;;;;;;;8.37;7.03;;;15.80;99.90;;;;;;4979769;28;20207;-40
2023/06/15 05:57:36;;;;;;;7.27;6.63;;;15.80;99.90;;;;;;5004743;28;20202;-43
2023/06/15 06:00:06;;;;;;;8.87;7.80;;;16.00;99.90;;;;;;5009886;28;20225;-42
2023/06/15 06:02:41;;;;;;;8.47;7.40;;;16.10;99.90;;;;;;5012466;28;20184;-42
2023/06/15 06:05:09;;;;;;;8.33;7.47;;;16.30;99.90;;;;;;4990787;28;20191;-42
2023/06/15 06:07:35;;;;;;;8.63;7.07;;;16.40;99.90;;;;;;4994502;28;20211;-43
2023/06/15 06:10:01;;;;;;;7.57;6.77;;;16.60;99.90;;;;;;5004189;28;20261;-43
2023/06/15 06:12:28;;;;;;;7.63;6.93;;;16.80;99.90;;;;;;4992560;28;20177;-43
2023/06/15 06:14:53;;;;;;;8.33;7.43;;;16.90;99.90;;;;;;4990615;28;20202;-42
2023/06/15 06:17:19;;;;;;;8.53;6.73;;;17.10;99.90;;;;;;5005721;28;20203;-40
2023/06/15 06:19:48;;;;;;;7.80;7.00;;;17.20;99.90;;;;;;4990516;28;20180;-42
2023/06/15 06:22:14;;;;;;;9.50;6.77;;;17.40;99.90;;;;;;4992321;28;20206;-42
2023/06/15 06:24:40;;;;;;;8.43;7.00;;;17.60;99.90;;;;;;4990508;28;20195;-42
2023/06/15 06:27:07;;;;;;;8.30;7.47;;;17.80;99.90;;;;;;4990107;28;20230;-41
2023/06/15 06:29:33;;;;;;;8.13;6.55;;;17.90;99.90;;;;;;4990120;28;20215;-42
2023/06/15 06:31:59;;;;;;;7.85;7.05;;;18.10;99.90;;;;;;4989971;28;20188;-42
2023/06/15 06:34:25;;;;;;;8.02;6.88;;;18.20;99.90;;;;;;4990946;28;20293;-43
2023/06/15 06:36:51;;;;;;;8.20;6.75;;;18.40;99.90;;;;;;4989833;28;20271;-43
2023/06/15 06:39:17;;;;;;;6.88;6.15;;;18.60;99.90;;;;;;4993420;28;20197;-34
2023/06/15 06:41:45;;;;;;;7.75;5.65;;;18.80;99.90;;;;;;5008574;28;20183;-33
2023/06/15 06:44:13;;;;;;;6.70;6.03;;;18.80;99.90;;;;;;5008681;28;20188;-35
2023/06/15 06:46:39;;;;;;;6.85;5.63;;;18.90;99.90;;;;;;4986121;28;20202;-33
2023/06/15 06:49:05;;;;;;;8.25;6.05;;;19.00;99.90;;;;;;4993881;28;20191;-34
2023/06/15 06:51:31;;;;;;;6.72;6.03;;;19.10;99.90;;;;;;4990286;28;20339;-35
2023/06/15 06:53:57;;;;;;;7.32;6.10;;;19.10;99.90;;;;;;4982525;28;20225;-35
2023/06/15 06:56:23;;;;;;;7.07;6.20;;;19.10;99.90;;;;;;4974227;28;20240;-34
2023/06/15 06:58:49;;;;;;;6.38;5.72;;;19.00;99.90;;;;;;4979364;28;20168;-33
2023/06/15 07:01:14;;;;;;;8.93;6.18;;;19.00;99.90;;;;;;4991762;28;20184;-33
2023/06/15 07:03:40;;;;;;;10.75;6.70;;;19.10;99.90;;;;;;4990373;28;20202;-34
2023/06/15 07:06:06;;;;;;;6.70;5.97;;;19.20;99.90;;;;;;4986830;28;20212;-33
2023/06/15 07:08:32;;;;;;;6.80;6.10;;;19.40;99.90;;;;;;5006089;28;20199;-35
2023/06/15 07:10:58;;;;;;;13.90;6.82;;;19.60;99.90;;;;;;4993674;28;20210;-35
2023/06/15 07:13:23;;;;;;;7.07;5.55;;;19.80;99.90;;;;;;4999332;28;20180;-32
2023/06/15 07:15:53;;;;;;;6.35;5.75;;;20.00;99.90;;;;;;5014395;28;20180;-33
2023/06/15 07:18:20;;;;;;;6.15;5.30;;;20.30;99.90;;;;;;5000202;28;20191;-34
2023/06/15 07:20:46;;;;;;;5.57;5.05;;;20.50;99.90;;;;;;4993819;28;20230;-34
2023/06/15 07:23:11;;;;;;;9.68;5.70;;;20.70;99.90;;;;;;4992175;28;20229;-37
2023/06/15 07:25:37;;;;;;;5.75;5.15;;;21.00;99.90;;;;;;5002513;28;20278;-34
2023/06/15 07:28:03;;;;;;;5.47;4.50;;;21.20;99.90;;;;;;4985410;28;20290;-37
2023/06/15 07:30:29;;;;;;;7.03;4.72;;;21.40;99.90;;;;;;5009116;28;20367;-37
2023/06/15 07:32:55;;;;;;;6.78;5.78;;;21.60;99.90;;;;;;4993682;28;20180;-38
2023/06/15 07:35:21;;;;;;;6.38;5.38;;;21.70;99.90;;;;;;4983076;28;20211;-33
2023/06/15 07:37:47;;;;;;;6.28;5.00;;;21.80;99.90;;;;;;5011673;28;20202;-35
2023/06/15 07:40:13;;;;;;;7.82;5.95;;;22.00;99.90;;;;;;5000895;28;20218;-37
2023/06/15 07:42:38;;;;;;;6.95;5.72;;;22.20;99.90;;;;;;4992668;28;20183;-40
2023/06/15 07:45:05;;;;;;;8.57;5.65;;;22.30;99.90;;;;;;5009480;28;20283;-38
2023/06/15 07:47:31;;;;;;;5.80;5.10;;;22.40;99.90;;;;;;4984185;28;20235;-39
2023/06/15 07:49:56;;;;;;;5.65;5.05;;;22.50;99.90;;;;;;5009671;28;20239;-35
2023/06/15 07:52:22;;;;;;;10.48;6.15;;;22.60;99.90;;;;;;5012446;28;20202;-41
2023/06/15 07:54:49;;;;;;;6.75;6.03;;;22.70;99.90;;;;;;5004914;28;20667;-41
2023/06/15 07:57:15;;;;;;;6.63;5.60;;;22.40;99.90;;;;;;4979669;28;20204;-41
2023/06/15 07:59:41;;;;;;;8.00;5.50;;;22.30;99.90;;;;;;4988550;28;20175;-40
2023/06/15 08:02:07;;;;;;;8.68;5.78;;;22.40;99.90;;;;;;4996169;28;20182;-39
2023/06/15 08:04:33;;;;;;;8.38;6.15;;;22.40;99.90;;;;;;4984585;28;20183;-37
2023/06/15 08:06:58;;;;;;;6.60;5.35;;;22.50;99.90;;;;;;5008525;28;20211;-41
2023/06/15 08:09:25;;;;;;;7.30;5.32;;;22.70;99.90;;;;;;5011225;28;20184;-38
2023/06/15 08:11:51;;;;;;;6.10;5.50;;;22.90;99.90;;;;;;4997903;28;20207;-38
2023/06/15 08:14:19;;;;;;;8.13;5.30;;;22.90;99.90;;;;;;5010706;28;20180;-40
2023/06/15 08:16:45;;;;;;;8.98;6.10;;;23.00;99.90;;;;;;4982615;28;20303;-38
2023/06/15 08:19:11;;;;;;;8.85;5.90;;;23.20;99.90;;;;;;5009606;28;20176;-39
2023/06/15 08:21:36;;;;;;;8.75;4.78;;;22.90;99.90;;;;;;4995640;28;20188;-39
2023/06/15 08:24:02;;;;;;;7.32;5.35;;;23.10;99.90;;;;;;4995757;28;20206;-40
2023/06/15 08:26:28;;;;;;;5.65;4.82;;;23.40;99.90;;;;;;4995039;28;20210;-42
2023/06/15 08:28:54;;;;;;;9.77;5.30;;;23.60;99.90;;;;;;4981325;28;20210;-38
2023/06/15 08:31:20;;;;;;;10.35;5.28;;;23.60;99.90;;;;;;5010536;28;20208;-39
2023/06/15 08:33:46;;;;;;;4.72;4.32;;;23.70;99.90;;;;;;4982300;28;20196;-36
2023/06/15 08:36:12;;;;;;;7.07;4.57;;;24.00;99.90;;;;;;5009285;28;20200;-43
2023/06/15 08:38:37;;;;;;;6.78;4.53;;;24.20;99.90;;;;;;4983204;28;20188;-41
2023/06/15 08:41:04;;;;;;;5.55;4.10;;;24.50;99.90;;;;;;5008538;28;20183;-38
2023/06/15 08:43:32;;;;;;;6.85;4.78;;;24.50;99.90;;;;;;5011687;28;20194;-37
2023/06/15 08:45:59;;;;;;;5.10;4.70;;;24.70;99.90;;;;;;4980623;28;20188;-39
2023/06/15 08:48:27;;;;;;;4.90;4.28;;;24.90;99.90;;;;;;5010893;28;20188;-39
2023/06/15 08:50:54;;;;;;;7.40;4.80;;;25.10;99.90;;;;;;4987579;28;20234;-39
2023/06/15 08:53:22;;;;;;;4.82;4.35;;;25.30;99.90;;;;;;4992157;28;20202;-41
2023/06/15 08:55:49;;;;;;;4.82;4.43;;;25.50;99.90;;;;;;5005905;28;20198;-39
2023/06/15 08:58:15;;;;;;;6.15;4.13;;;25.20;99.90;;;;;;4978745;28;20214;-36
2023/06/15 09:00:41;;;;;;;5.03;4.22;;;25.20;99.90;;;;;;4995208;28;20183;-39
2023/06/15 09:03:09;;;;;;;7.00;4.78;;;25.40;99.90;;;;;;4979088;28;20215;-36
2023/06/15 09:05:35;;;;;;;5.32;4.70;;;25.40;99.90;;;;;;4983375;28;20179;-41
2023/06/15 09:08:03;;;;;;;5.70;4.30;;;25.70;99.90;;;;;;5011152;28;20293;-38
2023/06/15 09:10:31;;;;;;;5.80;4.30;;;26.00;99.90;;;;;;4992542;28;20222;-36
2023/06/15 09:12:58;;;;;;;5.93;4.30;;;26.20;99.70;;;;;;5006812;28;20183;-37
2023/06/15 09:15:27;;;;;;;4.60;4.20;;;26.50;99.20;;;;;;4992984;28;20225;-38
2023/06/15 09:17:58;;;;;;;4.95;4.30;;;26.70;98.10;;;;;;4994973;28;20282;-38
2023/06/15 09:20:26;;;;;;;5.03;4.00;;;26.90;97.80;;;;;;5008958;28;20187;-37
2023/06/15 09:22:56;;;;;;;5.20;4.47;;;27.00;97.60;;;;;;5005874;28;20191;-38
2023/06/15 09:25:22;;;;;;;4.68;4.00;;;27.00;97.80;;;;;;5011122;28;20190;-41
2023/06/15 09:28:07;;;;;;;4.90;4.38;;;27.20;97.40;;;;;;4980605;28;20200;-43
2023/06/15 09:30:38;;;;;;;4.65;4.35;;;27.30;96.00;;;;;;4995002;28;20207;-43
2023/06/15 09:33:15;;;;;;;4.03;3.70;;;27.60;95.90;;;;;;5019316;28;20194;-43
2023/06/15 09:35:58;;;;;;;4.35;3.88;;;27.30;94.60;;;;;;4991146;28;20176;-43
2023/06/15 09:38:25;;;;;;;5.60;3.85;;;27.10;95.00;;;;;;4991971;28;20183;-43
2023/06/15 09:40:51;;;;;;;4.85;3.95;;;26.70;94.20;;;;;;4991166;28;20207;-43
2023/06/15 09:43:18;;;;;;;5.20;3.95;;;26.40;94.80;;;;;;4991028;28;20188;-43
2023/06/15 09:45:54;;;;;;;4.18;3.25;;;26.10;94.80;;;;;;4989843;28;20243;-43
2023/06/15 09:48:21;;;;;;;6.13;3.90;;;25.90;94.80;;;;;;4990972;28;20254;-43
2023/06/15 09:50:51;;;;;;;5.00;3.60;;;25.70;94.50;;;;;;4994178;28;20199;-44
2023/06/15 09:53:18;;;;;;;3.97;3.67;;;25.40;94.50;;;;;;4992422;28;20190;-40
2023/06/15 09:55:46;;;;;;;4.20;3.30;;;25.20;94.70;;;;;;4994122;28;20183;-43
2023/06/15 09:58:12;;;;;;;4.15;3.75;;;25.10;94.70;;;;;;4991147;28;20183;-43
2023/06/15 10:00:38;;;;;;;4.03;3.60;;;24.90;95.10;;;;;;4981807;28;20234;-43
2023/06/15 10:03:08;;;;;;;4.03;3.63;;;24.70;94.30;;;;;;5007636;28;20183;-43
2023/06/15 10:05:40;;;;;;;4.32;3.45;;;24.50;94.20;;;;;;5002147;28;20206;-40
2023/06/15 10:08:08;;;;;;;3.90;3.55;;;24.40;94.30;;;;;;4993135;28;20207;-41
2023/06/15 10:10:39;;;;;;;4.00;3.70;;;24.10;94.70;;;;;;4994108;28;20226;-41
2023/06/15 10:13:12;;;;;;;5.93;3.72;;;24.20;95.00;;;;;;5023356;28;20182;-43
2023/06/15 10:15:38;;;;;;;3.88;3.47;;;24.30;94.80;;;;;;5010005;28;20175;-43
2023/06/15 10:18:05;;;;;;;3.90;3.40;;;24.60;95.50;;;;;;4993724;28;20198;-43
2023/06/15 10:20:33;;;;;;;4.32;3.70;;;24.90;94.10;;;;;;4990429;28;20180;-43
2023/06/15 10:23:00;;;;;;;5.10;4.22;;;25.10;94.00;;;;;;5005712;28;20187;-41
2023/06/15 10:25:30;;;;;;;4.72;3.72;;;25.40;93.70;;;;;;4991054;28;20183;-43
2023/06/15 10:27:56;;;;;;;4.10;3.63;;;25.80;94.00;;;;;;4990269;28;20216;-43
2023/06/15 10:30:53;;;;;;;4.28;3.45;;;26.40;93.90;;;;;;4989792;28;20211;-43
2023/06/15 10:33:44;;;;;;;4.07;3.78;;;26.60;92.70;;;;;;4990396;28;20225;-43
2023/06/15 10:36:27;;;;;;;4.28;3.72;;;26.50;92.10;;;;;;4990093;28;20195;-41
2023/06/15 10:39:22;;;;;;;4.57;3.92;;;26.60;92.80;;;;;;4990369;28;20188;-43
2023/06/15 10:41:53;;;;;;;4.40;3.40;;;26.50;91.70;;;;;;4980162;28;20211;-44
2023/06/15 10:44:18;;;;;;;4.00;3.17;;;26.70;91.60;;;;;;5007454;28;20192;-41
2023/06/15 10:46:44;;;;;;;3.97;3.55;;;26.90;91.80;;;;;;4980130;28;20211;-44
2023/06/15 10:49:11;;;;;;;4.30;3.90;;;27.20;91.70;;;;;;5006973;28;20199;-44
2023/06/15 10:51:49;;;;;;;4.03;3.50;;;27.50;92.20;;;;;;4988809;28;20291;-43
2023/06/15 10:54:23;;;;;;;3.55;3.25;;;27.70;90.20;;;;;;4991772;28;20179;-43
2023/06/15 10:56:57;;;;;;;4.20;3.85;;;27.80;90.30;;;;;;4993027;28;20230;-44
2023/06/15 10:59:49;;;;;;;4.72;3.50;;;28.20;88.80;;;;;;4999712;28;20213;-41
2023/06/15 11:02:27;;;;;;;4.38;3.50;;;28.50;87.90;;;;;;5006368;28;20187;-42
2023/06/15 11:04:59;;;;;;;3.80;3.50;;;28.90;85.50;;;;;;4987983;28;20200;-41
2023/06/15 11:07:32;;;;;;;3.92;3.63;;;28.70;86.90;;;;;;4992945;28;20219;-41
2023/06/15 11:10:01;;;;;;;4.18;3.78;;;28.90;86.30;;;;;;5002311;28;20211;-42
2023/06/15 11:12:42;;;;;;;4.60;3.83;;;29.10;86.20;;;;;;5007064;28;20180;-42
2023/06/15 11:15:13;;;;;;;3.83;3.42;;;29.40;84.90;;;;;;4993742;28;20195;-43
2023/06/15 11:17:53;;;;;;;3.95;3.65;;;29.80;84.00;;;;;;5012079;28;20195;-43
2023/06/15 11:20:38;;;;;;;4.35;4.00;;;30.00;82.10;;;;;;5005068;28;20215;-40
2023/06/15 11:23:19;;;;;;;4.43;3.85;;;30.20;82.40;;;;;;5005922;28;20219;-41
2023/06/15 11:25:54;;;;;;;3.97;3.58;;;30.40;81.50;;;;;;4988813;28;20210;-41
2023/06/15 11:28:24;;;;;;;6.50;4.15;;;30.20;82.30;;;;;;5012830;28;20190;-42
2023/06/15 11:30:54;;;;;;;4.45;3.22;;;30.20;81.80;;;;;;4982831;28;20208;-42
2023/06/15 11:33:32;;;;;;;4.75;4.00;;;30.10;82.00;;;;;;5013215;28;20667;-41
2023/06/15 11:36:06;;;;;;;4.22;3.55;;;29.80;81.90;;;;;;5005340;28;20183;-42
2023/06/15 11:38:33;;;;;;;6.70;3.80;;;29.80;79.50;;;;;;4993154;28;20184;-42
2023/06/15 11:41:00;;;;;;;3.83;3.53;;;29.40;80.80;;;;;;4995983;28;20187;-43
2023/06/15 11:43:41;;;;;;;6.60;3.53;;;29.20;81.60;;;;;;4984442;28;20203;-41
2023/06/15 11:46:15;;;;;;;3.40;3.03;;;28.60;83.30;;;;;;5006073;28;20200;-42
2023/06/15 11:48:45;;;;;;;4.07;3.78;;;28.80;83.90;;;;;;5006885;28;20195;-42
2023/06/15 11:51:13;;;;;;;5.15;3.33;;;28.80;84.00;;;;;;5004353;28;20207;-41
2023/06/15 11:53:40;;;;;;;4.03;3.63;;;28.90;81.40;;;;;;4997261;28;20180;-42
2023/06/15 11:56:13;;;;;;;4.72;3.90;;;28.80;81.10;;;;;;4988556;28;20354;-43
2023/06/15 11:58:40;;;;;;;3.65;3.35;;;28.90;81.00;;;;;;5012581;28;20321;-41
2023/06/15 12:01:06;;;;;;;3.90;3.60;;;28.80;82.30;;;;;;4995576;28;20180;-43
2023/06/15 12:03:37;;;;;;;4.10;3.70;;;28.80;81.80;;;;;;4991283;28;20329;-42
2023/06/15 12:06:03;;;;;;;3.90;3.60;;;28.50;81.00;;;;;;4994425;28;20297;-42
2023/06/15 12:08:31;;;;;;;5.05;3.60;;;28.70;82.90;;;;;;4976719;28;20188;-43
2023/06/15 12:10:59;;;;;;;4.07;3.28;;;28.90;82.60;;;;;;4996278;28;20214;-42
2023/06/15 12:13:26;;;;;;;3.85;3.55;;;29.00;82.30;;;;;;5001039;28;20187;-41
2023/06/15 12:15:53;;;;;;;3.95;3.65;;;28.60;81.10;;;;;;5002018;28;20180;-41
2023/06/15 12:18:21;;;;;;;3.70;3.33;;;28.80;80.60;;;;;;5010205;28;20184;-42
2023/06/15 12:20:47;;;;;;;4.53;3.83;;;29.20;81.60;;;;;;4979280;28;20191;-42
2023/06/15 12:23:34;;;;;;;3.42;3.13;;;29.40;78.70;;;;;;4995424;28;20191;-41
2023/06/15 12:26:01;;;;;;;4.22;3.70;;;29.70;78.60;;;;;;4993639;28;20176;-40
2023/06/15 12:28:31;;;;;;;5.65;3.25;;;30.00;77.40;;;;;;5009769;28;20270;-40
2023/06/15 12:31:02;;;;;;;5.07;3.63;;;30.20;77.50;;;;;;5012385;28;20191;-38
2023/06/15 12:33:39;;;;;;;5.60;3.53;;;30.00;77.40;;;;;;5004242;28;20230;-38
2023/06/15 12:36:12;;;;;;;3.80;3.50;;;29.40;78.40;;;;;;5012202;28;20210;-39
2023/06/15 12:38:40;;;;;;;5.82;3.35;;;29.30;78.90;;;;;;4995485;28;20271;-42
2023/06/15 12:41:12;;;;;;;4.00;3.70;;;29.10;78.70;;;;;;4995865;28;20662;-38
2023/06/15 12:43:39;;;;;;;4.72;3.50;;;28.80;79.10;;;;;;4995601;28;20198;-40
2023/06/15 12:46:05;;;;;;;3.60;3.30;;;28.40;78.50;;;;;;4995597;28;20214;-39
2023/06/15 12:48:33;;;;;;;3.60;3.30;;;28.10;79.40;;;;;;4995375;28;20334;-40
2023/06/15 12:51:00;;;;;;;4.30;4.00;;;28.10;81.00;;;;;;4995637;28;20253;-41
2023/06/15 12:53:26;;;;;;;4.13;3.67;;;28.20;81.10;;;;;;4993722;28;20180;-38